sensor_id;sensor_type;location;lat;lon;timestamp;pressure;altitude;pressure_sealevel;temperature;humidity
59545;BME280;45368;55.002;-1.592;2022-09-09T00:02:18;99753.53;;;18.22;56.15
59545;BME280;45368;55.002;-1.592;2022-09-09T00:04:53;99757.55;;;18.22;56.05
59545;BME280;45368;55.002;-1.592;2022-09-09T00:07:34;99758.88;;;19.00;55.39
59545;BME280;45368;55.002;-1.592;2022-09-09T00:10:16;99760.97;;;18.76;54.97
59545;BME280;45368;55.002;-1.592;2022-09-09T00:12:53;99757.38;;;18.64;55.06
59545;BME280;45368;55.002;-1.592;2022-09-09T00:15:24;99752.51;;;19.22;54.11
59545;BME280;45368;55.002;-1.592;2022-09-09T00:17:56;99756.03;;;19.12;54.66
59545;BME280;45368;55.002;-1.592;2022-09-09T00:20:32;99756.33;;;18.87;54.68
59545;BME280;45368;55.002;-1.592;2022-09-09T00:23:09;99757.91;;;19.26;54.39
59545;BME280;45368;55.002;-1.592;2022-09-09T00:25:45;99759.97;;;19.03;54.39
59545;BME280;45368;55.002;-1.592;2022-09-09T00:28:19;99760.87;;;18.74;54.57
59545;BME280;45368;55.002;-1.592;2022-09-09T00:30:47;99761.66;;;18.72;54.55
59545;BME280;45368;55.002;-1.592;2022-09-09T00:33:17;99762.14;;;18.64;54.59
59545;BME280;45368;55.002;-1.592;2022-09-09T00:35:48;99762.00;;;18.89;54.59
59545;BME280;45368;55.002;-1.592;2022-09-09T00:38:26;99764.60;;;18.59;54.54
59545;BME280;45368;55.002;-1.592;2022-09-09T00:41:02;99766.30;;;18.52;54.71
59545;BME280;45368;55.002;-1.592;2022-09-09T00:43:35;99770.94;;;18.39;54.75
59545;BME280;45368;55.002;-1.592;2022-09-09T00:46:19;99768.85;;;18.78;54.47
59545;BME280;45368;55.002;-1.592;2022-09-09T00:48:57;99766.67;;;18.68;54.27
59545;BME280;45368;55.002;-1.592;2022-09-09T00:51:35;99764.04;;;18.87;53.66
59545;BME280;45368;55.002;-1.592;2022-09-09T00:54:17;99761.18;;;19.05;53.27
59545;BME280;45368;55.002;-1.592;2022-09-09T00:57:03;99759.42;;;18.65;53.65
59545;BME280;45368;55.002;-1.592;2022-09-09T00:59:40;99758.18;;;18.66;53.53
59545;BME280;45368;55.002;-1.592;2022-09-09T01:02:19;99758.83;;;19.15;52.96
59545;BME280;45368;55.002;-1.592;2022-09-09T01:04:49;99758.72;;;18.47;53.92
59545;BME280;45368;55.002;-1.592;2022-09-09T01:07:17;99759.98;;;18.06;54.68
59545;BME280;45368;55.002;-1.592;2022-09-09T01:09:54;99763.25;;;18.52;54.28
59545;BME280;45368;55.002;-1.592;2022-09-09T01:12:28;99762.65;;;17.97;54.41
59545;BME280;45368;55.002;-1.592;2022-09-09T01:15:03;99762.13;;;18.17;54.74
59545;BME280;45368;55.002;-1.592;2022-09-09T01:17:44;99764.59;;;18.04;55.61
59545;BME280;45368;55.002;-1.592;2022-09-09T01:20:15;99768.39;;;17.52;57.10
59545;BME280;45368;55.002;-1.592;2022-09-09T01:22:52;99764.53;;;17.80;56.61
59545;BME280;45368;55.002;-1.592;2022-09-09T01:25:56;99765.35;;;18.17;56.01
59545;BME280;45368;55.002;-1.592;2022-09-09T01:28:30;99768.43;;;17.52;56.83
59545;BME280;45368;55.002;-1.592;2022-09-09T01:30:59;99767.15;;;17.36;57.12
59545;BME280;45368;55.002;-1.592;2022-09-09T01:33:27;99769.72;;;17.48;56.98
59545;BME280;45368;55.002;-1.592;2022-09-09T01:35:58;99763.49;;;17.93;56.04
59545;BME280;45368;55.002;-1.592;2022-09-09T01:38:29;99765.20;;;17.82;55.96
59545;BME280;45368;55.002;-1.592;2022-09-09T01:40:58;99766.10;;;17.43;56.79
59545;BME280;45368;55.002;-1.592;2022-09-09T01:43:26;99768.30;;;16.94;58.59
59545;BME280;45368;55.002;-1.592;2022-09-09T01:45:55;99767.40;;;17.24;57.86
59545;BME280;45368;55.002;-1.592;2022-09-09T01:48:24;99765.20;;;17.31;57.87
59545;BME280;45368;55.002;-1.592;2022-09-09T01:50:52;99768.24;;;16.01;60.87
59545;BME280;45368;55.002;-1.592;2022-09-09T01:53:21;99764.50;;;14.85;63.74
59545;BME280;45368;55.002;-1.592;2022-09-09T01:55:58;99765.89;;;15.68;63.28
59545;BME280;45368;55.002;-1.592;2022-09-09T01:58:34;99765.25;;;16.44;60.74
59545;BME280;45368;55.002;-1.592;2022-09-09T02:01:15;99764.45;;;15.28;63.37
59545;BME280;45368;55.002;-1.592;2022-09-09T02:03:49;99764.49;;;14.99;64.70
59545;BME280;45368;55.002;-1.592;2022-09-09T02:06:25;99759.38;;;14.59;67.34
59545;BME280;45368;55.002;-1.592;2022-09-09T02:08:57;99756.14;;;14.93;65.37
59545;BME280;45368;55.002;-1.592;2022-09-09T02:11:26;99759.20;;;15.52;63.94
59545;BME280;45368;55.002;-1.592;2022-09-09T02:13:59;99764.18;;;15.32;64.22
59545;BME280;45368;55.002;-1.592;2022-09-09T02:16:32;99765.24;;;15.46;64.13
59545;BME280;45368;55.002;-1.592;2022-09-09T02:19:06;99763.12;;;15.76;64.59
59545;BME280;45368;55.002;-1.592;2022-09-09T02:21:35;99765.88;;;15.56;64.09
59545;BME280;45368;55.002;-1.592;2022-09-09T02:24:06;99780.18;;;15.90;62.77
59545;BME280;45368;55.002;-1.592;2022-09-09T02:26:35;99792.43;;;15.50;63.95
59545;BME280;45368;55.002;-1.592;2022-09-09T02:29:07;99786.45;;;16.52;61.36
59545;BME280;45368;55.002;-1.592;2022-09-09T02:31:37;99788.89;;;16.58;61.70
59545;BME280;45368;55.002;-1.592;2022-09-09T02:34:06;99790.25;;;16.19;62.97
59545;BME280;45368;55.002;-1.592;2022-09-09T02:36:37;99784.43;;;15.88;64.44
59545;BME280;45368;55.002;-1.592;2022-09-09T02:39:07;99779.50;;;14.37;68.00
59545;BME280;45368;55.002;-1.592;2022-09-09T02:41:37;99777.53;;;14.81;67.59
59545;BME280;45368;55.002;-1.592;2022-09-09T02:44:08;99774.56;;;14.85;67.19
59545;BME280;45368;55.002;-1.592;2022-09-09T02:46:47;99776.47;;;16.09;64.58
59545;BME280;45368;55.002;-1.592;2022-09-09T02:49:21;99782.97;;;16.38;63.96
59545;BME280;45368;55.002;-1.592;2022-09-09T02:51:54;99773.84;;;16.41;63.85
59545;BME280;45368;55.002;-1.592;2022-09-09T02:54:27;99764.00;;;15.86;64.51
59545;BME280;45368;55.002;-1.592;2022-09-09T02:56:55;99766.74;;;15.72;65.11
59545;BME280;45368;55.002;-1.592;2022-09-09T02:59:25;99767.73;;;16.13;63.96
59545;BME280;45368;55.002;-1.592;2022-09-09T03:01:53;99767.68;;;15.68;64.68
59545;BME280;45368;55.002;-1.592;2022-09-09T03:04:21;99765.74;;;15.99;64.17
59545;BME280;45368;55.002;-1.592;2022-09-09T03:06:48;99767.20;;;16.42;63.36
59545;BME280;45368;55.002;-1.592;2022-09-09T03:09:15;99758.08;;;16.76;62.67
59545;BME280;45368;55.002;-1.592;2022-09-09T03:11:43;99754.02;;;17.33;61.24
59545;BME280;45368;55.002;-1.592;2022-09-09T03:14:10;99752.81;;;16.70;61.93
59545;BME280;45368;55.002;-1.592;2022-09-09T03:16:37;99747.18;;;16.78;61.80
59545;BME280;45368;55.002;-1.592;2022-09-09T03:19:04;99739.61;;;17.04;62.35
59545;BME280;45368;55.002;-1.592;2022-09-09T03:21:32;99744.71;;;16.38;63.51
59545;BME280;45368;55.002;-1.592;2022-09-09T03:23:59;99741.95;;;15.94;64.84
59545;BME280;45368;55.002;-1.592;2022-09-09T03:26:26;99743.04;;;14.93;68.26
59545;BME280;45368;55.002;-1.592;2022-09-09T03:28:53;99737.31;;;14.50;70.22
59545;BME280;45368;55.002;-1.592;2022-09-09T03:31:20;99739.49;;;14.45;69.83
59545;BME280;45368;55.002;-1.592;2022-09-09T03:33:48;99740.81;;;15.69;66.70
59545;BME280;45368;55.002;-1.592;2022-09-09T03:36:15;99746.19;;;16.49;64.96
59545;BME280;45368;55.002;-1.592;2022-09-09T03:38:43;99745.15;;;16.21;65.01
59545;BME280;45368;55.002;-1.592;2022-09-09T03:41:10;99742.99;;;16.32;64.04
59545;BME280;45368;55.002;-1.592;2022-09-09T03:43:38;99741.63;;;16.60;64.31
59545;BME280;45368;55.002;-1.592;2022-09-09T03:46:05;99744.24;;;15.23;67.40
59545;BME280;45368;55.002;-1.592;2022-09-09T03:48:33;99741.61;;;15.49;68.04
59545;BME280;45368;55.002;-1.592;2022-09-09T03:51:05;99742.65;;;15.48;68.14
59545;BME280;45368;55.002;-1.592;2022-09-09T03:53:32;99745.19;;;15.77;67.67
59545;BME280;45368;55.002;-1.592;2022-09-09T03:56:00;99747.15;;;15.18;69.39
59545;BME280;45368;55.002;-1.592;2022-09-09T03:58:28;99747.03;;;15.74;67.53
59545;BME280;45368;55.002;-1.592;2022-09-09T04:01:36;99745.28;;;16.20;66.24
59545;BME280;45368;55.002;-1.592;2022-09-09T04:04:03;99745.75;;;16.72;64.96
59545;BME280;45368;55.002;-1.592;2022-09-09T04:06:31;99742.27;;;16.67;64.14
59545;BME280;45368;55.002;-1.592;2022-09-09T04:08:57;99743.92;;;16.62;64.26
59545;BME280;45368;55.002;-1.592;2022-09-09T04:11:24;99749.31;;;16.53;64.51
59545;BME280;45368;55.002;-1.592;2022-09-09T04:13:52;99752.34;;;16.05;65.28
59545;BME280;45368;55.002;-1.592;2022-09-09T04:16:19;99752.05;;;16.63;64.27
59545;BME280;45368;55.002;-1.592;2022-09-09T04:18:47;99754.73;;;16.40;64.93
59545;BME280;45368;55.002;-1.592;2022-09-09T04:21:14;99758.34;;;16.51;64.85
59545;BME280;45368;55.002;-1.592;2022-09-09T04:23:42;99756.03;;;17.10;63.35
59545;BME280;45368;55.002;-1.592;2022-09-09T04:26:09;99761.06;;;15.78;65.73
59545;BME280;45368;55.002;-1.592;2022-09-09T04:28:37;99757.99;;;16.78;64.09
59545;BME280;45368;55.002;-1.592;2022-09-09T04:31:05;99757.82;;;17.02;63.40
59545;BME280;45368;55.002;-1.592;2022-09-09T04:33:33;99759.94;;;17.05;62.57
59545;BME280;45368;55.002;-1.592;2022-09-09T04:36:01;99761.48;;;16.79;62.33
59545;BME280;45368;55.002;-1.592;2022-09-09T04:38:28;99759.90;;;17.55;61.60
59545;BME280;45368;55.002;-1.592;2022-09-09T04:40:56;99759.31;;;17.51;61.01
59545;BME280;45368;55.002;-1.592;2022-09-09T04:43:24;99761.31;;;16.87;63.45
59545;BME280;45368;55.002;-1.592;2022-09-09T04:45:51;99760.59;;;17.50;61.82
59545;BME280;45368;55.002;-1.592;2022-09-09T04:48:19;99766.57;;;16.65;63.62
59545;BME280;45368;55.002;-1.592;2022-09-09T04:50:55;99760.28;;;16.81;63.25
59545;BME280;45368;55.002;-1.592;2022-09-09T04:53:22;99766.53;;;16.58;63.04
59545;BME280;45368;55.002;-1.592;2022-09-09T04:55:49;99768.33;;;17.43;62.10
59545;BME280;45368;55.002;-1.592;2022-09-09T04:58:17;99767.11;;;17.42;62.04
59545;BME280;45368;55.002;-1.592;2022-09-09T05:00:44;99770.13;;;17.98;60.97
59545;BME280;45368;55.002;-1.592;2022-09-09T05:03:11;99769.59;;;17.92;60.55
59545;BME280;45368;55.002;-1.592;2022-09-09T05:05:39;99769.20;;;18.13;60.50
59545;BME280;45368;55.002;-1.592;2022-09-09T05:08:08;99773.79;;;18.01;60.43
59545;BME280;45368;55.002;-1.592;2022-09-09T05:10:37;99774.72;;;17.34;62.25
59545;BME280;45368;55.002;-1.592;2022-09-09T05:13:06;99768.69;;;18.07;61.00
59545;BME280;45368;55.002;-1.592;2022-09-09T05:15:33;99772.23;;;17.32;63.11
59545;BME280;45368;55.002;-1.592;2022-09-09T05:18:00;99766.73;;;17.84;61.52
59545;BME280;45368;55.002;-1.592;2022-09-09T05:20:28;99765.30;;;17.62;61.00
59545;BME280;45368;55.002;-1.592;2022-09-09T05:22:56;99769.28;;;17.51;61.58
59545;BME280;45368;55.002;-1.592;2022-09-09T05:25:24;99764.96;;;17.64;61.44
59545;BME280;45368;55.002;-1.592;2022-09-09T05:27:51;99769.87;;;17.21;62.03
59545;BME280;45368;55.002;-1.592;2022-09-09T05:30:19;99768.35;;;18.00;60.46
59545;BME280;45368;55.002;-1.592;2022-09-09T05:32:46;99772.16;;;17.19;61.83
59545;BME280;45368;55.002;-1.592;2022-09-09T05:35:14;99768.27;;;17.98;60.66
59545;BME280;45368;55.002;-1.592;2022-09-09T05:37:41;99770.58;;;18.04;60.19
59545;BME280;45368;55.002;-1.592;2022-09-09T05:40:09;99768.37;;;18.09;60.35
59545;BME280;45368;55.002;-1.592;2022-09-09T05:42:36;99773.53;;;17.91;60.59
59545;BME280;45368;55.002;-1.592;2022-09-09T05:45:03;99775.45;;;17.82;60.72
59545;BME280;45368;55.002;-1.592;2022-09-09T05:47:30;99774.09;;;17.96;60.26
59545;BME280;45368;55.002;-1.592;2022-09-09T05:49:57;99776.68;;;16.96;62.47
59545;BME280;45368;55.002;-1.592;2022-09-09T05:52:25;99777.82;;;17.55;62.28
59545;BME280;45368;55.002;-1.592;2022-09-09T05:54:52;99778.06;;;17.77;61.84
59545;BME280;45368;55.002;-1.592;2022-09-09T05:57:19;99777.81;;;17.59;61.50
59545;BME280;45368;55.002;-1.592;2022-09-09T05:59:47;99776.28;;;17.74;61.34
59545;BME280;45368;55.002;-1.592;2022-09-09T06:02:14;99778.13;;;17.39;62.70
59545;BME280;45368;55.002;-1.592;2022-09-09T06:04:41;99785.92;;;15.75;67.05
59545;BME280;45368;55.002;-1.592;2022-09-09T06:07:08;99787.37;;;16.63;65.38
59545;BME280;45368;55.002;-1.592;2022-09-09T06:09:36;99790.49;;;15.87;67.60
59545;BME280;45368;55.002;-1.592;2022-09-09T06:12:03;99786.19;;;17.15;64.50
59545;BME280;45368;55.002;-1.592;2022-09-09T06:14:30;99789.95;;;16.64;65.69
59545;BME280;45368;55.002;-1.592;2022-09-09T06:16:58;99787.64;;;17.23;64.41
59545;BME280;45368;55.002;-1.592;2022-09-09T06:19:24;99791.22;;;16.52;65.45
59545;BME280;45368;55.002;-1.592;2022-09-09T06:21:52;99795.10;;;15.58;67.60
59545;BME280;45368;55.002;-1.592;2022-09-09T06:24:20;99795.92;;;16.96;64.84
59545;BME280;45368;55.002;-1.592;2022-09-09T06:26:47;99796.60;;;16.83;65.43
59545;BME280;45368;55.002;-1.592;2022-09-09T06:29:15;99799.67;;;15.42;68.48
59545;BME280;45368;55.002;-1.592;2022-09-09T06:31:42;99802.59;;;15.77;68.87
59545;BME280;45368;55.002;-1.592;2022-09-09T06:34:09;99806.92;;;16.26;67.68
59545;BME280;45368;55.002;-1.592;2022-09-09T06:36:38;99803.87;;;16.21;67.34
59545;BME280;45368;55.002;-1.592;2022-09-09T06:39:06;99808.22;;;15.06;70.94
59545;BME280;45368;55.002;-1.592;2022-09-09T06:41:34;99806.70;;;16.19;68.60
59545;BME280;45368;55.002;-1.592;2022-09-09T06:44:02;99809.74;;;16.73;66.30
59545;BME280;45368;55.002;-1.592;2022-09-09T06:46:30;99808.98;;;15.78;68.81
59545;BME280;45368;55.002;-1.592;2022-09-09T06:48:58;99805.44;;;16.34;67.22
59545;BME280;45368;55.002;-1.592;2022-09-09T06:51:26;99805.11;;;17.10;65.19
59545;BME280;45368;55.002;-1.592;2022-09-09T06:53:55;99810.16;;;16.34;66.89
59545;BME280;45368;55.002;-1.592;2022-09-09T06:56:25;99816.41;;;16.18;67.07
59545;BME280;45368;55.002;-1.592;2022-09-09T06:58:53;99815.97;;;15.98;67.99
59545;BME280;45368;55.002;-1.592;2022-09-09T07:01:23;99817.65;;;15.72;68.86
59545;BME280;45368;55.002;-1.592;2022-09-09T07:03:52;99817.39;;;15.35;69.99
59545;BME280;45368;55.002;-1.592;2022-09-09T07:06:21;99819.66;;;15.33;71.04
59545;BME280;45368;55.002;-1.592;2022-09-09T07:08:50;99819.47;;;15.25;71.15
59545;BME280;45368;55.002;-1.592;2022-09-09T07:11:19;99818.24;;;15.83;69.93
59545;BME280;45368;55.002;-1.592;2022-09-09T07:13:46;99823.53;;;15.75;70.58
59545;BME280;45368;55.002;-1.592;2022-09-09T07:16:16;99828.44;;;15.36;71.86
59545;BME280;45368;55.002;-1.592;2022-09-09T07:18:44;99827.52;;;15.57;70.76
59545;BME280;45368;55.002;-1.592;2022-09-09T07:21:14;99830.95;;;15.67;69.76
59545;BME280;45368;55.002;-1.592;2022-09-09T07:23:42;99836.65;;;16.05;68.93
59545;BME280;45368;55.002;-1.592;2022-09-09T07:26:10;99835.46;;;16.44;68.16
59545;BME280;45368;55.002;-1.592;2022-09-09T07:28:37;99836.11;;;15.91;68.84
59545;BME280;45368;55.002;-1.592;2022-09-09T07:31:06;99834.10;;;16.77;67.10
59545;BME280;45368;55.002;-1.592;2022-09-09T07:33:34;99837.07;;;16.09;68.51
59545;BME280;45368;55.002;-1.592;2022-09-09T07:36:06;99839.33;;;16.69;67.12
59545;BME280;45368;55.002;-1.592;2022-09-09T07:38:38;99836.41;;;17.18;65.83
59545;BME280;45368;55.002;-1.592;2022-09-09T07:41:07;99839.27;;;16.36;67.84
59545;BME280;45368;55.002;-1.592;2022-09-09T07:43:35;99839.01;;;16.97;66.28
59545;BME280;45368;55.002;-1.592;2022-09-09T07:46:02;99847.05;;;16.35;67.96
59545;BME280;45368;55.002;-1.592;2022-09-09T07:48:29;99845.35;;;16.92;66.26
59545;BME280;45368;55.002;-1.592;2022-09-09T07:51:06;99849.71;;;16.70;65.78
59545;BME280;45368;55.002;-1.592;2022-09-09T07:53:35;99850.02;;;17.21;65.60
59545;BME280;45368;55.002;-1.592;2022-09-09T07:56:04;99854.22;;;17.74;64.37
59545;BME280;45368;55.002;-1.592;2022-09-09T07:59:11;99857.91;;;17.07;66.31
59545;BME280;45368;55.002;-1.592;2022-09-09T08:01:40;99858.39;;;16.87;66.74
59545;BME280;45368;55.002;-1.592;2022-09-09T08:04:09;99859.37;;;17.40;65.47
59545;BME280;45368;55.002;-1.592;2022-09-09T08:06:39;99865.08;;;16.03;67.63
59545;BME280;45368;55.002;-1.592;2022-09-09T08:09:08;99865.31;;;16.66;66.75
59545;BME280;45368;55.002;-1.592;2022-09-09T08:11:36;99870.60;;;16.94;65.33
59545;BME280;45368;55.002;-1.592;2022-09-09T08:14:05;99872.93;;;16.58;66.52
59545;BME280;45368;55.002;-1.592;2022-09-09T08:16:34;99872.84;;;16.86;66.29
59545;BME280;45368;55.002;-1.592;2022-09-09T08:19:03;99878.72;;;16.46;67.10
59545;BME280;45368;55.002;-1.592;2022-09-09T08:21:32;99872.68;;;16.11;68.12
59545;BME280;45368;55.002;-1.592;2022-09-09T08:24:01;99877.75;;;16.43;67.60
59545;BME280;45368;55.002;-1.592;2022-09-09T08:26:30;99872.99;;;17.55;65.05
59545;BME280;45368;55.002;-1.592;2022-09-09T08:28:59;99875.52;;;17.23;65.41
59545;BME280;45368;55.002;-1.592;2022-09-09T08:31:28;99877.96;;;17.30;65.65
59545;BME280;45368;55.002;-1.592;2022-09-09T08:33:56;99880.90;;;16.04;68.22
59545;BME280;45368;55.002;-1.592;2022-09-09T08:36:26;99884.05;;;15.56;69.05
59545;BME280;45368;55.002;-1.592;2022-09-09T08:38:57;99877.56;;;16.39;67.62
59545;BME280;45368;55.002;-1.592;2022-09-09T08:41:42;99882.95;;;16.88;66.09
59545;BME280;45368;55.002;-1.592;2022-09-09T08:44:21;99879.85;;;16.55;66.99
59545;BME280;45368;55.002;-1.592;2022-09-09T08:46:57;99881.72;;;15.67;68.95
59545;BME280;45368;55.002;-1.592;2022-09-09T08:49:52;99883.04;;;16.38;67.51
59545;BME280;45368;55.002;-1.592;2022-09-09T08:52:25;99886.00;;;16.89;65.81
59545;BME280;45368;55.002;-1.592;2022-09-09T08:54:58;99886.12;;;17.09;64.46
59545;BME280;45368;55.002;-1.592;2022-09-09T08:57:31;99886.04;;;16.87;65.31
59545;BME280;45368;55.002;-1.592;2022-09-09T08:59:59;99885.23;;;17.08;63.72
59545;BME280;45368;55.002;-1.592;2022-09-09T09:02:32;99887.48;;;17.14;63.90
59545;BME280;45368;55.002;-1.592;2022-09-09T09:05:15;99884.37;;;18.07;62.18
59545;BME280;45368;55.002;-1.592;2022-09-09T09:07:55;99880.89;;;18.22;61.46
59545;BME280;45368;55.002;-1.592;2022-09-09T09:10:39;99879.72;;;18.69;59.88
59545;BME280;45368;55.002;-1.592;2022-09-09T09:13:15;99882.61;;;19.36;58.80
59545;BME280;45368;55.002;-1.592;2022-09-09T09:15:44;99885.25;;;19.15;57.82
59545;BME280;45368;55.002;-1.592;2022-09-09T09:18:19;99889.92;;;18.98;57.55
59545;BME280;45368;55.002;-1.592;2022-09-09T09:20:53;99891.13;;;18.69;58.30
59545;BME280;45368;55.002;-1.592;2022-09-09T09:23:26;99893.06;;;18.30;58.74
59545;BME280;45368;55.002;-1.592;2022-09-09T09:25:58;99901.65;;;17.65;61.17
59545;BME280;45368;55.002;-1.592;2022-09-09T09:28:29;99899.54;;;19.35;57.68
59545;BME280;45368;55.002;-1.592;2022-09-09T09:31:01;99903.38;;;19.31;57.85
59545;BME280;45368;55.002;-1.592;2022-09-09T09:33:36;99907.62;;;19.47;57.14
59545;BME280;45368;55.002;-1.592;2022-09-09T09:36:06;99916.08;;;17.94;60.58
59545;BME280;45368;55.002;-1.592;2022-09-09T09:38:35;99909.92;;;18.98;59.50
59545;BME280;45368;55.002;-1.592;2022-09-09T09:41:02;99911.90;;;18.75;59.18
59545;BME280;45368;55.002;-1.592;2022-09-09T09:43:32;99908.76;;;18.53;59.52
59545;BME280;45368;55.002;-1.592;2022-09-09T09:46:00;99911.97;;;18.61;59.61
59545;BME280;45368;55.002;-1.592;2022-09-09T09:48:28;99920.89;;;17.78;61.66
59545;BME280;45368;55.002;-1.592;2022-09-09T09:50:57;99919.62;;;16.35;67.11
59545;BME280;45368;55.002;-1.592;2022-09-09T09:53:28;99930.66;;;14.72;72.72
59545;BME280;45368;55.002;-1.592;2022-09-09T09:56:00;99933.92;;;15.41;70.77
59545;BME280;45368;55.002;-1.592;2022-09-09T09:58:29;99946.31;;;13.48;76.65
59545;BME280;45368;55.002;-1.592;2022-09-09T10:00:57;99938.25;;;14.60;74.44
59545;BME280;45368;55.002;-1.592;2022-09-09T10:03:27;99941.63;;;14.36;73.77
59545;BME280;45368;55.002;-1.592;2022-09-09T10:05:54;99948.13;;;14.80;72.83
59545;BME280;45368;55.002;-1.592;2022-09-09T10:08:22;99951.93;;;15.12;72.37
59545;BME280;45368;55.002;-1.592;2022-09-09T10:11:15;99953.52;;;14.30;74.71
59545;BME280;45368;55.002;-1.592;2022-09-09T10:13:52;99959.20;;;14.14;74.91
59545;BME280;45368;55.002;-1.592;2022-09-09T10:16:31;99965.42;;;14.18;75.22
59545;BME280;45368;55.002;-1.592;2022-09-09T10:19:05;99967.94;;;14.27;74.72
59545;BME280;45368;55.002;-1.592;2022-09-09T10:21:49;99983.75;;;13.83;75.70
59545;BME280;45368;55.002;-1.592;2022-09-09T10:24:50;99975.15;;;13.99;75.87
59545;BME280;45368;55.002;-1.592;2022-09-09T10:27:26;99986.75;;;13.50;77.60
59545;BME280;45368;55.002;-1.592;2022-09-09T10:30:06;99985.23;;;14.00;76.32
59545;BME280;45368;55.002;-1.592;2022-09-09T10:32:40;99978.52;;;14.90;73.24
59545;BME280;45368;55.002;-1.592;2022-09-09T10:35:14;99995.60;;;14.35;75.16
59545;BME280;45368;55.002;-1.592;2022-09-09T10:38:00;99992.90;;;14.76;72.90
59545;BME280;45368;55.002;-1.592;2022-09-09T10:40:32;99997.13;;;13.88;75.49
59545;BME280;45368;55.002;-1.592;2022-09-09T10:43:09;100004.25;;;14.48;74.34
59545;BME280;45368;55.002;-1.592;2022-09-09T10:45:49;100006.53;;;13.90;76.33
59545;BME280;45368;55.002;-1.592;2022-09-09T10:48:31;100007.57;;;14.25;75.87
59545;BME280;45368;55.002;-1.592;2022-09-09T10:51:14;100016.90;;;12.95;78.97
59545;BME280;45368;55.002;-1.592;2022-09-09T10:53:57;100012.20;;;13.50;77.41
59545;BME280;45368;55.002;-1.592;2022-09-09T10:56:29;100019.44;;;13.51;77.25
59545;BME280;45368;55.002;-1.592;2022-09-09T10:59:04;100027.80;;;12.51;81.12
59545;BME280;45368;55.002;-1.592;2022-09-09T11:01:39;100025.22;;;13.78;77.15
59545;BME280;45368;55.002;-1.592;2022-09-09T11:04:13;100037.62;;;13.35;78.30
59545;BME280;45368;55.002;-1.592;2022-09-09T11:06:46;100028.87;;;13.27;78.54
59545;BME280;45368;55.002;-1.592;2022-09-09T11:09:18;100029.80;;;13.90;78.12
59545;BME280;45368;55.002;-1.592;2022-09-09T11:11:52;100018.76;;;14.17;74.89
59545;BME280;45368;55.002;-1.592;2022-09-09T11:14:24;100027.58;;;13.96;75.29
59545;BME280;45368;55.002;-1.592;2022-09-09T11:16:57;100028.22;;;13.61;78.61
59545;BME280;45368;55.002;-1.592;2022-09-09T11:19:32;100025.93;;;13.86;77.79
59545;BME280;45368;55.002;-1.592;2022-09-09T11:22:04;100017.24;;;13.61;78.50
59545;BME280;45368;55.002;-1.592;2022-09-09T11:24:36;100029.56;;;13.23;80.78
59545;BME280;45368;55.002;-1.592;2022-09-09T11:27:09;100041.66;;;12.88;82.22
59545;BME280;45368;55.002;-1.592;2022-09-09T11:29:56;100042.24;;;12.74;82.61
59545;BME280;45368;55.002;-1.592;2022-09-09T11:32:53;100041.66;;;13.64;80.41
59545;BME280;45368;55.002;-1.592;2022-09-09T11:35:31;100047.85;;;13.54;79.62
59545;BME280;45368;55.002;-1.592;2022-09-09T11:38:16;100048.77;;;13.21;80.05
59545;BME280;45368;55.002;-1.592;2022-09-09T11:40:45;100054.05;;;13.16;80.55
59545;BME280;45368;55.002;-1.592;2022-09-09T11:43:17;100060.27;;;13.14;80.16
59545;BME280;45368;55.002;-1.592;2022-09-09T11:45:52;100059.02;;;13.46;80.46
59545;BME280;45368;55.002;-1.592;2022-09-09T11:48:33;100068.33;;;13.07;81.29
59545;BME280;45368;55.002;-1.592;2022-09-09T11:51:04;100072.14;;;12.89;81.83
59545;BME280;45368;55.002;-1.592;2022-09-09T11:53:32;100068.17;;;13.87;78.17
59545;BME280;45368;55.002;-1.592;2022-09-09T11:56:04;100076.52;;;12.92;80.47
59545;BME280;45368;55.002;-1.592;2022-09-09T11:58:38;100078.27;;;12.49;82.15
59545;BME280;45368;55.002;-1.592;2022-09-09T12:01:15;100081.91;;;13.27;80.75
59545;BME280;45368;55.002;-1.592;2022-09-09T12:03:45;100081.92;;;12.77;81.84
59545;BME280;45368;55.002;-1.592;2022-09-09T12:06:18;100081.91;;;13.54;80.77
59545;BME280;45368;55.002;-1.592;2022-09-09T12:08:50;100085.09;;;13.54;78.99
59545;BME280;45368;55.002;-1.592;2022-09-09T12:11:29;100083.92;;;13.16;80.57
59545;BME280;45368;55.002;-1.592;2022-09-09T12:13:58;100089.81;;;13.29;80.18
59545;BME280;45368;55.002;-1.592;2022-09-09T12:16:34;100096.96;;;12.60;81.08
59545;BME280;45368;55.002;-1.592;2022-09-09T12:19:12;100094.20;;;13.48;79.76
59545;BME280;45368;55.002;-1.592;2022-09-09T12:21:46;100092.63;;;13.50;78.69
59545;BME280;45368;55.002;-1.592;2022-09-09T12:24:22;100093.32;;;13.88;77.81
59545;BME280;45368;55.002;-1.592;2022-09-09T12:26:59;100098.63;;;13.67;78.47
59545;BME280;45368;55.002;-1.592;2022-09-09T12:29:38;100095.42;;;13.29;79.96
59545;BME280;45368;55.002;-1.592;2022-09-09T12:32:11;100096.12;;;14.07;77.59
59545;BME280;45368;55.002;-1.592;2022-09-09T12:34:40;100098.52;;;13.41;78.71
59545;BME280;45368;55.002;-1.592;2022-09-09T12:37:16;100099.28;;;13.51;80.26
59545;BME280;45368;55.002;-1.592;2022-09-09T12:39:49;100102.82;;;13.64;79.10
59545;BME280;45368;55.002;-1.592;2022-09-09T12:42:19;100108.83;;;13.33;80.06
59545;BME280;45368;55.002;-1.592;2022-09-09T12:44:55;100107.35;;;13.79;78.62
59545;BME280;45368;55.002;-1.592;2022-09-09T12:47:29;100107.06;;;13.32;78.82
59545;BME280;45368;55.002;-1.592;2022-09-09T12:49:58;100110.24;;;14.02;77.03
59545;BME280;45368;55.002;-1.592;2022-09-09T12:52:29;100122.11;;;13.78;77.60
59545;BME280;45368;55.002;-1.592;2022-09-09T12:54:59;100120.20;;;13.55;78.23
59545;BME280;45368;55.002;-1.592;2022-09-09T12:57:33;100125.62;;;13.82;76.92
59545;BME280;45368;55.002;-1.592;2022-09-09T13:00:11;100128.94;;;13.24;79.01
59545;BME280;45368;55.002;-1.592;2022-09-09T13:02:48;100130.41;;;13.94;76.64
59545;BME280;45368;55.002;-1.592;2022-09-09T13:05:19;100136.73;;;13.41;78.79
59545;BME280;45368;55.002;-1.592;2022-09-09T13:07:47;100133.08;;;14.19;76.58
59545;BME280;45368;55.002;-1.592;2022-09-09T13:10:20;100139.63;;;13.26;79.66
59545;BME280;45368;55.002;-1.592;2022-09-09T13:12:51;100138.16;;;13.21;79.43